Adjuster:

Seasonal Box Office


INDEX BY QUARTER | INDEX BY YEAR | SEASON-TO-DATE

2017 - 2016 - 2015 - 2014 - 2013 - 2012 - 2011 - 2010 - 2009 - 2008 - 2007 - 2006 - 2005 - 2004 - 2003 - 2002 - 2001 - 2000

Season-to-Date: Fall
(The day after Labor Day Weekend through the Thursday before the first Friday in November)
Data shown for Sep . 3–17


#1–100 - #101–189
RowRankMovie Title (click to view)Studio
Gross / TheatersTotal Gross / % of TotalOpen
11Insidious Chapter 2FD$43,913,1693,049$83,586,44752.5%9/13/13
26The Family (2013)Rela.$16,663,5173,091$36,918,81145.1%9/13/13
350Grand MastiEros$256,38564$413,90361.9%9/13/13
461The InvestigatorGMF$98,73711$103,73995.2%9/13/13
571Wadjda (U.S. only)SPC$51,7543$1,347,7473.8%9/13/13
680Final: The RaptureRivR$34,1362$124,56127.4%9/13/13
793Mother of GeorgeOsci.$24,8791$157,93715.8%9/13/13
8106Blue CapriceIFC$15,7691$93,99516.8%9/13/13
9107GMO OMGSD$15,7021$47,55833.0%9/13/13
10110Le Joli MaiIcar.$13,7263$54,16825.3%9/13/13
11114Jayne Mansfield's CarAnch.$10,92811$14,83673.7%9/13/13
12121Harry Dean Stanton: Partly FictionAF$8,8312$23,95936.9%9/13/13
13128And While We Were HereWGUSA$7,75019$7,750100.0%9/13/13
14132Herb and Dorothy 50x50FLM$7,0561$38,93318.1%9/13/13
15140The Last Time I Saw MacaoCGld$4,0041$6,09565.7%9/13/13
16141The InformantMBox$3,7082$10,06836.8%9/13/13
17149PlushIMG/B$2,96210$3,08096.2%9/13/13
18177JerusalemNGE$8111$8,020,7210.0%9/13/13
19101Mademoiselle CCohen$20,3746$48,66841.9%9/11/13
202RiddickUni.$32,432,9253,117$42,025,13577.2%9/6/13
2130The Ultimate LifeHTR$1,119,409412$1,327,14984.3%9/6/13
2249AdoreEXCL$265,13457$318,98283.1%9/6/13
2354SalingerWein.$166,7104$583,63328.6%9/6/13
2464Winnie MandelaImag.$80,63432$80,634100.0%9/6/13
2565PopulaireWein.$69,80115$179,09139.0%9/6/13
2675Mission ParkAMP$43,77515$54,20480.8%9/6/13
2786Good Ol' FredaMagn.$27,9657$138,81120.1%9/6/13
2890Money for Nothing: Inside the Federal ReserveLibSt.$26,2353$88,04529.8%9/6/13
2997Contempt (2013 re-release)Rialto$24,0301$43,76354.9%9/6/13
3098Tio PapiAFP$21,31621$21,316100.0%9/6/13
3199Touchy FeelyMagn.$21,1465$36,12858.5%9/6/13
32102Russian Ark (2013 re-release)KL$19,6351$37,98451.7%9/6/13
33104Out of the Clear Blue SkyA23$16,0502$16,050100.0%9/6/13
3411236 SaintsAFP$11,6409$11,640100.0%9/6/13
35113Red ObsessionA23$11,5773$13,19987.7%9/6/13
36122Hell BabyMNE$8,78510$8,785100.0%9/6/13
37123Fire in the BloodICir$8,6813$28,99429.9%9/6/13
38126A TeacherOsci.$7,7746$8,34893.1%9/6/13
39129Il FuturoStrand$7,6923$14,00154.9%9/6/13
40182The CitizenMont.$5511$24,2962.3%9/6/13
41155InSpectresR88$2,2071$2,207100.0%9/5/13
42138La Maison De La RadioKL$5,0031$8,09561.8%9/4/13
435Instructions Not IncludedLGF$17,580,446933$44,467,20639.5%8/30/13
448One Direction: This is UsTriS$8,688,0502,735$28,873,37430.1%8/30/13
4514Getaway (2013)WB$4,496,2982,135$10,501,93842.8%8/30/13
4651SatyagrahaUTV$227,81883$738,52530.8%8/30/13
4759Afternoon DelightTFA$126,51539$174,49672.5%8/30/13
4873PassionEOne$45,33814$92,18149.2%8/30/13
49118American Made MovieVari.$9,0286$45,17520.0%8/30/13
50119Our NixonCdgm.$8,9825$20,58443.6%8/30/13
51143I Declare WarDrft.$3,59514$14,92824.1%8/30/13
52175Approaching MidnightMont.$8826$2,79531.6%8/30/13
53183Last Flight of the ChampionHTR$37715$2,59714.5%8/30/13
5423Closed CircuitFocus$2,017,545870$5,750,40135.1%8/28/13
5511The World's EndFocus$5,935,2331,553$26,004,85122.8%8/23/13
5616You're NextLGF$3,625,6862,437$18,494,00619.6%8/23/13
5719The GrandmasterWein.$2,576,885804$6,594,95939.1%8/23/13
5844Short Term 12Cdgm.$342,88363$1,013,10033.8%8/23/13
5957Drinking BuddiesMagn.$146,74029$343,34142.7%8/23/13
6076ThereseMPI$42,8758$101,94442.1%8/23/13
6181Una NocheIFC$31,1806$100,88730.9%8/23/13
62117SavannahKE$9,3396$37,24025.1%8/23/13
63147The Trials of Muhammad AliKL$3,1151$59,0815.3%8/23/13
64166Paradise: FaithStrand$1,4743$6,50822.6%8/23/13
6513The Mortal Instruments: City of BonesSGem$5,310,7983,118$31,165,42117.0%8/21/13
66179Justice Is MindTAT$7151$14,3605.0%8/18/13
67167Blue Exorcist The MovieElev.$1,4392$21,7966.6%8/17/13
683Lee Daniels' The ButlerWein.$21,669,2233,330$116,632,09518.6%8/16/13
6927Kick-Ass 2Uni.$1,610,2751,646$28,795,9855.6%8/16/13
7031JobsORF$1,118,0901,302$16,131,4106.9%8/16/13
7138AustenlandSPC$722,027274$2,159,04133.4%8/16/13
7252ParanoiaRela.$168,933392$7,385,0152.3%8/16/13
7363Ain't Them Bodies SaintsIFC$94,74544$396,51923.9%8/16/13
7477You Will Be My SonCohen$37,2856$285,15113.1%8/16/13
7582The Anonymous PeopleAM$30,99211$284,14710.9%8/16/13
7687Cutie and the BoxerRTWC$27,30112$200,03613.6%8/16/13
7792Spark: A Burning Man StoryP/FB$25,4026$120,45921.1%8/16/13
78169UnderdogsFree$1,3491$35,2713.8%8/16/13
79170Guitar Innovators: John Fahey & Nels ClineFRun$1,2022$6,13219.6%8/16/13
80180InchAllah (U.S. only)EOne$6852$9,8407.0%8/16/13
8191The Patience StoneSPC$25,53811$148,67117.2%8/14/13
827PlanesBV$9,396,6523,259$90,288,71210.4%8/9/13
839ElysiumTriS$8,384,5922,539$93,050,1179.0%8/9/13
8437In a WorldRAtt.$810,719144$2,963,90227.4%8/9/13
8567Snake and MongooseRM$64,7076$152,20042.5%8/9/13
8685Prince AvalancheMagn.$29,50723$205,13914.4%8/9/13
87116I Give It a YearMagn.$9,4335$34,65727.2%8/9/13
88157WhensdayNC$1,9602$19,46310.1%8/9/13
89160LovelaceRTWC$1,7985$356,5820.5%8/9/13
9056Chennai ExpressUTV$148,37193$5,307,9602.8%8/8/13
914We're the MillersWB (NL)$19,360,9963,445$150,394,11912.9%8/7/13
9212Percy Jackson: Sea of MonstersFox$5,566,0702,393$68,559,5548.1%8/7/13
93172 GunsUni.$3,544,4251,411$75,612,4604.7%8/2/13
9422The Spectacular NowA24$2,059,892770$6,854,61130.1%8/2/13
95109The Artist and the ModelCohen$14,24011$127,95811.1%8/2/13
96130Rising From AshesFRun$7,1365$38,60218.5%8/2/13
97135Europa ReportMagn.$6,0956$125,6874.8%8/2/13
98136The CanyonsIFC$5,9131$56,82510.4%8/2/13
99165Jamel Shabazz Street PhotographerAPD/C$1,5141$17,9928.4%8/2/13
10024The Smurfs 2Sony$2,014,6181,366$71,017,7842.8%7/31/13
Summary of 189 Movies on Chart:
Totals:$257,597,455----
Averages:$1,362,949----
#1–100 - #101–189



2017 - 2016 - 2015 - 2014 - 2013 - 2012 - 2011 - 2010 - 2009 - 2008 - 2007 - 2006 - 2005 - 2004 - 2003 - 2002 - 2001 - 2000

Season-to-Date: Fall
(The day after Labor Day Weekend through the Thursday before the first Friday in November)
Data shown for Sep . 3–17


Note: Quarter-to-Date data is displayed for CALENDAR GROSSES only, i.e., all movies playing during the above time period and their grosses (or estimated grosses). Click here for a full explanation of the various box office sections.